Aérodrome :
LOGIN :

S'inscrire | Disclaimer

   EN    FR    IT 

 










Légende :    VFR   VFR Marginal   IFR   IFR Intensif   IFR Très Intensif
Visi : 
Plafond : 
>= 8 km
>= 3000ft
5 à 8 km
1000 à 3000 ft
1500m à 5 km
500 à 1000 ft
800 à 1500m
200 à 500 ft
< 800m
< 200 ft
Symboles :   Orages  Brouillard  Fortes neiges  Fortes précipitations  Vent > 20 kt
SIGMETs :   Divers  Orages  Givrage  Turbulence  Onde Orograph.  Cendres Volcan.






- Altitude de l'aérodrome : 1325 ft
- Code IATA : EBU


LFMH - St-Etienne Boutheon

DERNIER METAR :
  • 130300Z AUTO VRB01KT CAVOK M02/M04 Q1028 NOSIG

METARs EXPIRÉS :
  • 130230Z AUTO VRB01KT CAVOK M02/M04 Q1028 NOSIG
  • 130200Z AUTO VRB01KT CAVOK M03/M05 Q1028 NOSIG
  • 130130Z AUTO VRB02KT CAVOK M01/M03 Q1028 NOSIG
  • 130100Z AUTO VRB01KT CAVOK M01/M04 Q1028 NOSIG
  • 130030Z AUTO 14002KT CAVOK M02/M05 Q1028 NOSIG

TAF TAF LFMH
Valide du 13 à 00h jusqu'au 14 à 00h UTC


122300Z 1300/1324 VRB02KT CAVOK
BECMG 1307/1310 34012KT
TEMPO 1310/1319 BKN050
ATIS : +33 4 77 36 17 51



MET'MAP, la Météo Aéronautique d'un coup d'oeil ! - Copyright ORBIFLY Décembre 2007 - Disclaimer

ORBIFLY MET'MAP TEAM :

Programmation & Développement : Alexandra Zaïnal
Sur une idée originale de : Baudouin d'Aumeries
Assistance à la programmation : Marc-Olivier Méhu
Soutien technique & logistique : Manuel Goepfert

Contact : metmap@orbifly.com




SOURCES & CREDITS :

   NOAA